sensor_id;sensor_type;location;lat;lon;timestamp;P1;durP1;ratioP1;P2;durP2;ratioP2
6117;SDS011;3089;48.202;11.510;2022-10-26T00:01:33;10.50;;;2.47;;
6117;SDS011;3089;48.202;11.510;2022-10-26T00:04:01;6.33;;;2.93;;
6117;SDS011;3089;48.202;11.510;2022-10-26T00:06:30;6.30;;;2.20;;
6117;SDS011;3089;48.202;11.510;2022-10-26T00:08:58;4.50;;;2.07;;
6117;SDS011;3089;48.202;11.510;2022-10-26T00:11:25;6.00;;;2.50;;
6117;SDS011;3089;48.202;11.510;2022-10-26T00:13:53;9.10;;;2.40;;
6117;SDS011;3089;48.202;11.510;2022-10-26T00:16:22;6.00;;;3.00;;
6117;SDS011;3089;48.202;11.510;2022-10-26T00:18:52;6.37;;;2.33;;
6117;SDS011;3089;48.202;11.510;2022-10-26T00:21:20;8.77;;;2.90;;
6117;SDS011;3089;48.202;11.510;2022-10-26T00:23:49;6.30;;;2.70;;
6117;SDS011;3089;48.202;11.510;2022-10-26T00:26:17;5.77;;;2.53;;
6117;SDS011;3089;48.202;11.510;2022-10-26T00:28:45;5.50;;;2.50;;
6117;SDS011;3089;48.202;11.510;2022-10-26T00:31:14;5.70;;;2.33;;
6117;SDS011;3089;48.202;11.510;2022-10-26T00:33:42;12.50;;;2.57;;
6117;SDS011;3089;48.202;11.510;2022-10-26T00:36:10;6.27;;;2.23;;
6117;SDS011;3089;48.202;11.510;2022-10-26T00:38:41;8.80;;;2.00;;
6117;SDS011;3089;48.202;11.510;2022-10-26T00:41:14;5.20;;;2.00;;
6117;SDS011;3089;48.202;11.510;2022-10-26T00:43:42;7.30;;;1.97;;
6117;SDS011;3089;48.202;11.510;2022-10-26T00:46:11;10.23;;;2.23;;
6117;SDS011;3089;48.202;11.510;2022-10-26T00:48:42;4.87;;;2.60;;
6117;SDS011;3089;48.202;11.510;2022-10-26T00:51:14;5.07;;;2.13;;
6117;SDS011;3089;48.202;11.510;2022-10-26T00:53:48;6.00;;;2.20;;
6117;SDS011;3089;48.202;11.510;2022-10-26T00:56:18;6.17;;;2.40;;
6117;SDS011;3089;48.202;11.510;2022-10-26T00:58:46;4.77;;;2.03;;
6117;SDS011;3089;48.202;11.510;2022-10-26T01:01:15;6.00;;;2.43;;
6117;SDS011;3089;48.202;11.510;2022-10-26T01:03:43;6.23;;;2.60;;
6117;SDS011;3089;48.202;11.510;2022-10-26T01:06:11;7.60;;;2.80;;
6117;SDS011;3089;48.202;11.510;2022-10-26T01:08:41;6.40;;;2.73;;
6117;SDS011;3089;48.202;11.510;2022-10-26T01:11:10;4.30;;;2.10;;
6117;SDS011;3089;48.202;11.510;2022-10-26T01:13:42;5.77;;;2.43;;
6117;SDS011;3089;48.202;11.510;2022-10-26T01:16:17;8.97;;;2.57;;
6117;SDS011;3089;48.202;11.510;2022-10-26T01:19:16;5.20;;;2.03;;
6117;SDS011;3089;48.202;11.510;2022-10-26T01:22:07;7.90;;;2.40;;
6117;SDS011;3089;48.202;11.510;2022-10-26T01:24:45;4.57;;;2.37;;
6117;SDS011;3089;48.202;11.510;2022-10-26T01:27:31;5.03;;;1.97;;
6117;SDS011;3089;48.202;11.510;2022-10-26T01:35:59;6.23;;;2.33;;
6117;SDS011;3089;48.202;11.510;2022-10-26T01:38:38;4.83;;;2.13;;
6117;SDS011;3089;48.202;11.510;2022-10-26T01:41:11;5.80;;;2.80;;
6117;SDS011;3089;48.202;11.510;2022-10-26T01:43:44;6.80;;;2.70;;
6117;SDS011;3089;48.202;11.510;2022-10-26T01:46:19;6.53;;;2.30;;
6117;SDS011;3089;48.202;11.510;2022-10-26T01:48:49;7.13;;;2.37;;
6117;SDS011;3089;48.202;11.510;2022-10-26T01:51:21;4.70;;;2.17;;
6117;SDS011;3089;48.202;11.510;2022-10-26T01:53:51;8.13;;;2.43;;
6117;SDS011;3089;48.202;11.510;2022-10-26T01:56:19;6.13;;;2.73;;
6117;SDS011;3089;48.202;11.510;2022-10-26T02:01:53;4.33;;;1.53;;
6117;SDS011;3089;48.202;11.510;2022-10-26T02:04:48;4.43;;;2.00;;
6117;SDS011;3089;48.202;11.510;2022-10-26T02:07:28;10.30;;;2.23;;
6117;SDS011;3089;48.202;11.510;2022-10-26T02:10:03;5.50;;;2.30;;
6117;SDS011;3089;48.202;11.510;2022-10-26T02:12:44;5.20;;;1.80;;
6117;SDS011;3089;48.202;11.510;2022-10-26T02:15:24;5.10;;;2.30;;
6117;SDS011;3089;48.202;11.510;2022-10-26T02:18:02;6.63;;;2.10;;
6117;SDS011;3089;48.202;11.510;2022-10-26T02:20:33;5.40;;;1.87;;
6117;SDS011;3089;48.202;11.510;2022-10-26T02:23:05;8.30;;;1.97;;
6117;SDS011;3089;48.202;11.510;2022-10-26T02:25:34;3.90;;;2.20;;
6117;SDS011;3089;48.202;11.510;2022-10-26T02:28:06;4.20;;;1.67;;
6117;SDS011;3089;48.202;11.510;2022-10-26T02:30:37;4.37;;;2.20;;
6117;SDS011;3089;48.202;11.510;2022-10-26T02:33:08;4.93;;;1.40;;
6117;SDS011;3089;48.202;11.510;2022-10-26T02:35:38;4.60;;;2.00;;
6117;SDS011;3089;48.202;11.510;2022-10-26T02:38:09;8.07;;;2.37;;
6117;SDS011;3089;48.202;11.510;2022-10-26T02:40:39;4.00;;;1.90;;
6117;SDS011;3089;48.202;11.510;2022-10-26T02:43:09;3.90;;;1.80;;
6117;SDS011;3089;48.202;11.510;2022-10-26T02:45:42;4.03;;;2.17;;
6117;SDS011;3089;48.202;11.510;2022-10-26T02:48:14;6.73;;;2.10;;
6117;SDS011;3089;48.202;11.510;2022-10-26T02:50:45;6.70;;;2.20;;
6117;SDS011;3089;48.202;11.510;2022-10-26T02:53:23;4.47;;;2.00;;
6117;SDS011;3089;48.202;11.510;2022-10-26T02:55:55;6.63;;;2.53;;
6117;SDS011;3089;48.202;11.510;2022-10-26T02:58:27;4.50;;;1.90;;
6117;SDS011;3089;48.202;11.510;2022-10-26T03:01:00;3.83;;;1.80;;
6117;SDS011;3089;48.202;11.510;2022-10-26T03:03:29;5.43;;;2.20;;
6117;SDS011;3089;48.202;11.510;2022-10-26T03:05:57;6.70;;;1.93;;
6117;SDS011;3089;48.202;11.510;2022-10-26T03:08:25;5.07;;;1.97;;
6117;SDS011;3089;48.202;11.510;2022-10-26T03:10:58;7.00;;;1.90;;
6117;SDS011;3089;48.202;11.510;2022-10-26T03:13:26;4.90;;;1.77;;
6117;SDS011;3089;48.202;11.510;2022-10-26T03:15:54;3.53;;;1.77;;
6117;SDS011;3089;48.202;11.510;2022-10-26T03:18:22;7.00;;;2.23;;
6117;SDS011;3089;48.202;11.510;2022-10-26T03:20:51;6.37;;;1.70;;
6117;SDS011;3089;48.202;11.510;2022-10-26T03:23:19;3.43;;;1.77;;
6117;SDS011;3089;48.202;11.510;2022-10-26T03:25:47;5.70;;;2.33;;
6117;SDS011;3089;48.202;11.510;2022-10-26T03:28:15;4.03;;;2.23;;
6117;SDS011;3089;48.202;11.510;2022-10-26T03:30:43;5.47;;;2.00;;
6117;SDS011;3089;48.202;11.510;2022-10-26T03:33:10;5.10;;;1.80;;
6117;SDS011;3089;48.202;11.510;2022-10-26T03:35:38;3.93;;;1.87;;
6117;SDS011;3089;48.202;11.510;2022-10-26T03:38:07;4.00;;;1.67;;
6117;SDS011;3089;48.202;11.510;2022-10-26T03:40:40;4.83;;;1.93;;
6117;SDS011;3089;48.202;11.510;2022-10-26T03:43:07;4.90;;;2.00;;
6117;SDS011;3089;48.202;11.510;2022-10-26T03:45:35;5.57;;;1.63;;
6117;SDS011;3089;48.202;11.510;2022-10-26T03:48:03;3.30;;;1.70;;
6117;SDS011;3089;48.202;11.510;2022-10-26T03:50:31;5.70;;;1.90;;
6117;SDS011;3089;48.202;11.510;2022-10-26T03:52:59;5.10;;;1.90;;
6117;SDS011;3089;48.202;11.510;2022-10-26T03:55:28;4.90;;;1.57;;
6117;SDS011;3089;48.202;11.510;2022-10-26T03:57:56;4.90;;;1.37;;
6117;SDS011;3089;48.202;11.510;2022-10-26T04:00:24;3.83;;;2.00;;
6117;SDS011;3089;48.202;11.510;2022-10-26T04:02:52;4.43;;;1.80;;
6117;SDS011;3089;48.202;11.510;2022-10-26T04:05:21;5.10;;;1.80;;
6117;SDS011;3089;48.202;11.510;2022-10-26T04:07:53;4.00;;;1.63;;
6117;SDS011;3089;48.202;11.510;2022-10-26T04:10:21;4.60;;;1.40;;
6117;SDS011;3089;48.202;11.510;2022-10-26T04:12:51;5.07;;;2.27;;
6117;SDS011;3089;48.202;11.510;2022-10-26T04:15:19;5.03;;;1.93;;
6117;SDS011;3089;48.202;11.510;2022-10-26T04:17:47;5.50;;;1.70;;
6117;SDS011;3089;48.202;11.510;2022-10-26T04:20:21;6.97;;;2.63;;
6117;SDS011;3089;48.202;11.510;2022-10-26T04:22:55;8.60;;;3.13;;
6117;SDS011;3089;48.202;11.510;2022-10-26T04:25:23;9.50;;;2.60;;
6117;SDS011;3089;48.202;11.510;2022-10-26T04:27:58;9.33;;;1.93;;
6117;SDS011;3089;48.202;11.510;2022-10-26T04:30:26;4.37;;;1.80;;
6117;SDS011;3089;48.202;11.510;2022-10-26T04:32:54;13.23;;;3.90;;
6117;SDS011;3089;48.202;11.510;2022-10-26T04:35:22;5.20;;;2.20;;
6117;SDS011;3089;48.202;11.510;2022-10-26T04:37:50;4.47;;;2.00;;
6117;SDS011;3089;48.202;11.510;2022-10-26T04:40:17;6.10;;;2.13;;
6117;SDS011;3089;48.202;11.510;2022-10-26T04:42:45;3.87;;;1.67;;
6117;SDS011;3089;48.202;11.510;2022-10-26T04:45:15;4.60;;;2.03;;
6117;SDS011;3089;48.202;11.510;2022-10-26T04:47:43;5.80;;;1.63;;
6117;SDS011;3089;48.202;11.510;2022-10-26T04:50:12;4.63;;;1.80;;
6117;SDS011;3089;48.202;11.510;2022-10-26T04:52:40;5.13;;;1.60;;
6117;SDS011;3089;48.202;11.510;2022-10-26T04:55:08;5.10;;;2.17;;
6117;SDS011;3089;48.202;11.510;2022-10-26T04:57:39;3.30;;;1.73;;
6117;SDS011;3089;48.202;11.510;2022-10-26T05:00:12;6.93;;;2.20;;
6117;SDS011;3089;48.202;11.510;2022-10-26T05:02:41;4.30;;;1.83;;
6117;SDS011;3089;48.202;11.510;2022-10-26T05:05:09;9.73;;;2.07;;
6117;SDS011;3089;48.202;11.510;2022-10-26T05:07:40;8.23;;;1.80;;
6117;SDS011;3089;48.202;11.510;2022-10-26T05:10:08;7.07;;;2.00;;
6117;SDS011;3089;48.202;11.510;2022-10-26T05:12:36;3.50;;;1.70;;
6117;SDS011;3089;48.202;11.510;2022-10-26T05:15:04;5.30;;;1.77;;
6117;SDS011;3089;48.202;11.510;2022-10-26T05:17:34;6.57;;;2.10;;
6117;SDS011;3089;48.202;11.510;2022-10-26T05:20:03;3.73;;;1.70;;
6117;SDS011;3089;48.202;11.510;2022-10-26T05:22:35;6.80;;;2.40;;
6117;SDS011;3089;48.202;11.510;2022-10-26T05:25:03;4.40;;;2.00;;
6117;SDS011;3089;48.202;11.510;2022-10-26T05:27:31;4.20;;;2.10;;
6117;SDS011;3089;48.202;11.510;2022-10-26T05:29:59;5.80;;;2.57;;
6117;SDS011;3089;48.202;11.510;2022-10-26T05:32:27;5.13;;;2.40;;
6117;SDS011;3089;48.202;11.510;2022-10-26T05:34:55;6.50;;;2.20;;
6117;SDS011;3089;48.202;11.510;2022-10-26T05:37:24;6.00;;;1.87;;
6117;SDS011;3089;48.202;11.510;2022-10-26T05:39:54;4.23;;;2.00;;
6117;SDS011;3089;48.202;11.510;2022-10-26T05:42:22;6.43;;;2.53;;
6117;SDS011;3089;48.202;11.510;2022-10-26T05:44:50;7.00;;;2.53;;
6117;SDS011;3089;48.202;11.510;2022-10-26T05:47:18;7.83;;;2.40;;
6117;SDS011;3089;48.202;11.510;2022-10-26T05:49:46;7.70;;;2.63;;
6117;SDS011;3089;48.202;11.510;2022-10-26T05:52:13;5.50;;;3.00;;
6117;SDS011;3089;48.202;11.510;2022-10-26T05:54:43;9.20;;;2.20;;
6117;SDS011;3089;48.202;11.510;2022-10-26T05:57:11;8.53;;;2.17;;
6117;SDS011;3089;48.202;11.510;2022-10-26T05:59:39;4.30;;;2.00;;
6117;SDS011;3089;48.202;11.510;2022-10-26T06:02:08;5.10;;;2.13;;
6117;SDS011;3089;48.202;11.510;2022-10-26T06:04:45;4.00;;;2.00;;
6117;SDS011;3089;48.202;11.510;2022-10-26T06:07:14;6.37;;;2.60;;
6117;SDS011;3089;48.202;11.510;2022-10-26T06:09:45;5.93;;;2.83;;
6117;SDS011;3089;48.202;11.510;2022-10-26T06:12:14;3.73;;;2.00;;
6117;SDS011;3089;48.202;11.510;2022-10-26T06:14:45;5.17;;;2.93;;
6117;SDS011;3089;48.202;11.510;2022-10-26T06:17:32;7.27;;;2.87;;
6117;SDS011;3089;48.202;11.510;2022-10-26T06:20:22;7.80;;;3.57;;
6117;SDS011;3089;48.202;11.510;2022-10-26T06:23:08;10.97;;;3.23;;
6117;SDS011;3089;48.202;11.510;2022-10-26T06:25:48;6.50;;;3.20;;
6117;SDS011;3089;48.202;11.510;2022-10-26T06:28:25;10.23;;;3.37;;
6117;SDS011;3089;48.202;11.510;2022-10-26T06:31:01;7.50;;;3.80;;
6117;SDS011;3089;48.202;11.510;2022-10-26T06:33:28;6.77;;;3.27;;
6117;SDS011;3089;48.202;11.510;2022-10-26T06:36:00;5.67;;;2.53;;
6117;SDS011;3089;48.202;11.510;2022-10-26T06:38:38;5.73;;;2.63;;
6117;SDS011;3089;48.202;11.510;2022-10-26T06:41:11;5.37;;;2.57;;
6117;SDS011;3089;48.202;11.510;2022-10-26T06:43:41;5.40;;;2.30;;
6117;SDS011;3089;48.202;11.510;2022-10-26T06:46:12;8.80;;;2.60;;
6117;SDS011;3089;48.202;11.510;2022-10-26T06:48:49;6.07;;;2.93;;
6117;SDS011;3089;48.202;11.510;2022-10-26T06:51:22;4.00;;;2.13;;
6117;SDS011;3089;48.202;11.510;2022-10-26T06:53:53;10.70;;;3.00;;
6117;SDS011;3089;48.202;11.510;2022-10-26T06:56:27;10.73;;;4.73;;
6117;SDS011;3089;48.202;11.510;2022-10-26T06:58:55;10.93;;;4.43;;
6117;SDS011;3089;48.202;11.510;2022-10-26T07:01:32;7.47;;;3.57;;
6117;SDS011;3089;48.202;11.510;2022-10-26T07:04:00;7.40;;;3.33;;
6117;SDS011;3089;48.202;11.510;2022-10-26T07:06:28;10.43;;;3.10;;
6117;SDS011;3089;48.202;11.510;2022-10-26T07:09:00;7.87;;;2.70;;
6117;SDS011;3089;48.202;11.510;2022-10-26T07:11:29;7.17;;;2.73;;
6117;SDS011;3089;48.202;11.510;2022-10-26T07:13:57;10.07;;;2.90;;
6117;SDS011;3089;48.202;11.510;2022-10-26T07:16:25;10.03;;;2.43;;
6117;SDS011;3089;48.202;11.510;2022-10-26T07:18:54;8.83;;;2.70;;
6117;SDS011;3089;48.202;11.510;2022-10-26T07:21:21;4.90;;;2.30;;
6117;SDS011;3089;48.202;11.510;2022-10-26T07:23:49;5.07;;;2.23;;
6117;SDS011;3089;48.202;11.510;2022-10-26T07:26:21;6.00;;;2.10;;
6117;SDS011;3089;48.202;11.510;2022-10-26T07:28:52;5.80;;;2.33;;
6117;SDS011;3089;48.202;11.510;2022-10-26T07:31:19;4.40;;;2.27;;
6117;SDS011;3089;48.202;11.510;2022-10-26T07:33:47;4.40;;;1.60;;
6117;SDS011;3089;48.202;11.510;2022-10-26T07:36:15;6.10;;;2.13;;
6117;SDS011;3089;48.202;11.510;2022-10-26T07:38:43;9.43;;;2.10;;
6117;SDS011;3089;48.202;11.510;2022-10-26T07:41:10;5.00;;;1.70;;
6117;SDS011;3089;48.202;11.510;2022-10-26T07:43:39;6.40;;;2.17;;
6117;SDS011;3089;48.202;11.510;2022-10-26T07:46:08;8.80;;;2.17;;
6117;SDS011;3089;48.202;11.510;2022-10-26T07:48:36;5.43;;;2.27;;
6117;SDS011;3089;48.202;11.510;2022-10-26T07:51:04;16.87;;;2.43;;
6117;SDS011;3089;48.202;11.510;2022-10-26T07:53:32;6.93;;;2.20;;
6117;SDS011;3089;48.202;11.510;2022-10-26T07:56:00;3.73;;;1.60;;
6117;SDS011;3089;48.202;11.510;2022-10-26T07:58:29;6.63;;;1.70;;
6117;SDS011;3089;48.202;11.510;2022-10-26T08:01:03;7.77;;;2.10;;
6117;SDS011;3089;48.202;11.510;2022-10-26T08:03:33;5.73;;;1.80;;
6117;SDS011;3089;48.202;11.510;2022-10-26T08:06:01;4.07;;;1.70;;
6117;SDS011;3089;48.202;11.510;2022-10-26T08:08:30;10.27;;;2.27;;
6117;SDS011;3089;48.202;11.510;2022-10-26T08:10:58;5.23;;;1.63;;
6117;SDS011;3089;48.202;11.510;2022-10-26T08:13:26;4.70;;;1.80;;
6117;SDS011;3089;48.202;11.510;2022-10-26T08:15:57;3.63;;;1.60;;
6117;SDS011;3089;48.202;11.510;2022-10-26T08:18:25;4.73;;;1.57;;
6117;SDS011;3089;48.202;11.510;2022-10-26T08:20:59;4.33;;;1.40;;
6117;SDS011;3089;48.202;11.510;2022-10-26T08:23:36;4.00;;;1.30;;
6117;SDS011;3089;48.202;11.510;2022-10-26T08:26:05;4.30;;;1.50;;
6117;SDS011;3089;48.202;11.510;2022-10-26T08:28:32;4.13;;;1.57;;
6117;SDS011;3089;48.202;11.510;2022-10-26T08:31:00;4.73;;;1.20;;
6117;SDS011;3089;48.202;11.510;2022-10-26T08:33:28;14.43;;;1.70;;
6117;SDS011;3089;48.202;11.510;2022-10-26T08:35:58;7.73;;;1.40;;
6117;SDS011;3089;48.202;11.510;2022-10-26T08:38:27;5.93;;;1.30;;
6117;SDS011;3089;48.202;11.510;2022-10-26T08:40:56;8.23;;;1.70;;
6117;SDS011;3089;48.202;11.510;2022-10-26T08:43:25;4.47;;;1.50;;
6117;SDS011;3089;48.202;11.510;2022-10-26T08:45:59;8.40;;;1.67;;
6117;SDS011;3089;48.202;11.510;2022-10-26T08:48:31;5.00;;;1.43;;
6117;SDS011;3089;48.202;11.510;2022-10-26T08:51:05;6.23;;;1.43;;
6117;SDS011;3089;48.202;11.510;2022-10-26T08:53:37;3.57;;;1.27;;
6117;SDS011;3089;48.202;11.510;2022-10-26T08:56:09;2.67;;;1.00;;
6117;SDS011;3089;48.202;11.510;2022-10-26T08:58:42;6.20;;;1.67;;
6117;SDS011;3089;48.202;11.510;2022-10-26T09:01:16;8.70;;;1.40;;
6117;SDS011;3089;48.202;11.510;2022-10-26T09:03:44;6.53;;;1.23;;
6117;SDS011;3089;48.202;11.510;2022-10-26T09:06:16;9.60;;;1.10;;
6117;SDS011;3089;48.202;11.510;2022-10-26T09:09:00;8.50;;;1.40;;
6117;SDS011;3089;48.202;11.510;2022-10-26T09:11:39;2.50;;;1.10;;
6117;SDS011;3089;48.202;11.510;2022-10-26T09:14:20;2.63;;;0.90;;
6117;SDS011;3089;48.202;11.510;2022-10-26T09:16:59;4.73;;;1.10;;
6117;SDS011;3089;48.202;11.510;2022-10-26T09:19:35;3.70;;;1.07;;
6117;SDS011;3089;48.202;11.510;2022-10-26T09:22:18;3.53;;;1.20;;
6117;SDS011;3089;48.202;11.510;2022-10-26T09:24:48;3.70;;;1.10;;
6117;SDS011;3089;48.202;11.510;2022-10-26T09:27:23;14.83;;;1.00;;
6117;SDS011;3089;48.202;11.510;2022-10-26T09:29:53;4.40;;;1.27;;
6117;SDS011;3089;48.202;11.510;2022-10-26T09:32:24;5.20;;;1.07;;
6117;SDS011;3089;48.202;11.510;2022-10-26T09:34:56;10.53;;;1.23;;
6117;SDS011;3089;48.202;11.510;2022-10-26T09:37:31;5.37;;;1.00;;
6117;SDS011;3089;48.202;11.510;2022-10-26T09:40:04;3.30;;;1.10;;
6117;SDS011;3089;48.202;11.510;2022-10-26T09:42:38;8.80;;;1.10;;
6117;SDS011;3089;48.202;11.510;2022-10-26T09:45:12;5.80;;;1.27;;
6117;SDS011;3089;48.202;11.510;2022-10-26T09:47:45;4.83;;;1.60;;
6117;SDS011;3089;48.202;11.510;2022-10-26T09:50:19;3.87;;;0.77;;
6117;SDS011;3089;48.202;11.510;2022-10-26T09:52:51;3.63;;;1.33;;
6117;SDS011;3089;48.202;11.510;2022-10-26T09:55:19;5.10;;;1.33;;
6117;SDS011;3089;48.202;11.510;2022-10-26T09:57:49;5.80;;;1.10;;
6117;SDS011;3089;48.202;11.510;2022-10-26T10:00:20;3.27;;;1.07;;
6117;SDS011;3089;48.202;11.510;2022-10-26T10:02:50;3.73;;;1.00;;
6117;SDS011;3089;48.202;11.510;2022-10-26T10:05:20;7.63;;;1.03;;
6117;SDS011;3089;48.202;11.510;2022-10-26T10:08:15;5.00;;;1.20;;
6117;SDS011;3089;48.202;11.510;2022-10-26T10:10:55;6.80;;;1.47;;
6117;SDS011;3089;48.202;11.510;2022-10-26T10:13:25;2.97;;;0.97;;
6117;SDS011;3089;48.202;11.510;2022-10-26T10:16:00;4.63;;;1.83;;
6117;SDS011;3089;48.202;11.510;2022-10-26T10:18:30;9.83;;;1.10;;
6117;SDS011;3089;48.202;11.510;2022-10-26T10:20:59;5.27;;;1.23;;
6117;SDS011;3089;48.202;11.510;2022-10-26T10:23:29;7.80;;;1.73;;
6117;SDS011;3089;48.202;11.510;2022-10-26T10:25:59;4.63;;;0.90;;
6117;SDS011;3089;48.202;11.510;2022-10-26T10:28:28;2.57;;;0.80;;
6117;SDS011;3089;48.202;11.510;2022-10-26T10:30:57;5.03;;;1.30;;
6117;SDS011;3089;48.202;11.510;2022-10-26T10:33:32;3.00;;;1.00;;
6117;SDS011;3089;48.202;11.510;2022-10-26T10:36:03;6.47;;;1.10;;
6117;SDS011;3089;48.202;11.510;2022-10-26T10:38:39;4.00;;;1.20;;
6117;SDS011;3089;48.202;11.510;2022-10-26T10:41:17;5.63;;;1.40;;
6117;SDS011;3089;48.202;11.510;2022-10-26T10:43:47;2.97;;;0.80;;
6117;SDS011;3089;48.202;11.510;2022-10-26T10:46:18;4.67;;;1.20;;
6117;SDS011;3089;48.202;11.510;2022-10-26T10:48:49;2.60;;;1.20;;
6117;SDS011;3089;48.202;11.510;2022-10-26T10:51:21;5.30;;;1.00;;
6117;SDS011;3089;48.202;11.510;2022-10-26T10:53:53;9.10;;;1.40;;
6117;SDS011;3089;48.202;11.510;2022-10-26T10:56:27;13.10;;;1.03;;
6117;SDS011;3089;48.202;11.510;2022-10-26T10:59:06;3.93;;;1.20;;
6117;SDS011;3089;48.202;11.510;2022-10-26T11:01:56;7.60;;;1.30;;
6117;SDS011;3089;48.202;11.510;2022-10-26T11:04:39;7.27;;;0.97;;
6117;SDS011;3089;48.202;11.510;2022-10-26T11:07:23;7.80;;;1.47;;
6117;SDS011;3089;48.202;11.510;2022-10-26T11:09:54;3.47;;;1.13;;
6117;SDS011;3089;48.202;11.510;2022-10-26T11:12:29;12.67;;;1.20;;
6117;SDS011;3089;48.202;11.510;2022-10-26T11:15:06;7.30;;;1.77;;
6117;SDS011;3089;48.202;11.510;2022-10-26T11:17:41;5.67;;;1.20;;
6117;SDS011;3089;48.202;11.510;2022-10-26T11:20:17;11.40;;;1.10;;
6117;SDS011;3089;48.202;11.510;2022-10-26T11:22:55;4.60;;;1.43;;
6117;SDS011;3089;48.202;11.510;2022-10-26T11:25:39;6.00;;;1.20;;
6117;SDS011;3089;48.202;11.510;2022-10-26T11:28:13;4.73;;;1.17;;
6117;SDS011;3089;48.202;11.510;2022-10-26T11:30:46;6.07;;;1.20;;
6117;SDS011;3089;48.202;11.510;2022-10-26T11:33:18;3.43;;;1.33;;
6117;SDS011;3089;48.202;11.510;2022-10-26T11:35:51;4.30;;;1.33;;
6117;SDS011;3089;48.202;11.510;2022-10-26T11:38:26;4.20;;;1.23;;
6117;SDS011;3089;48.202;11.510;2022-10-26T11:41:19;7.17;;;1.90;;
6117;SDS011;3089;48.202;11.510;2022-10-26T11:43:52;4.70;;;1.17;;
6117;SDS011;3089;48.202;11.510;2022-10-26T11:46:27;12.50;;;1.40;;
6117;SDS011;3089;48.202;11.510;2022-10-26T11:48:59;7.67;;;1.40;;
6117;SDS011;3089;48.202;11.510;2022-10-26T11:51:34;12.13;;;1.30;;
6117;SDS011;3089;48.202;11.510;2022-10-26T11:54:08;7.70;;;1.80;;
6117;SDS011;3089;48.202;11.510;2022-10-26T11:56:43;10.60;;;1.70;;
6117;SDS011;3089;48.202;11.510;2022-10-26T11:59:15;5.20;;;1.50;;
6117;SDS011;3089;48.202;11.510;2022-10-26T12:01:46;7.77;;;1.40;;
6117;SDS011;3089;48.202;11.510;2022-10-26T12:04:16;3.70;;;1.40;;
6117;SDS011;3089;48.202;11.510;2022-10-26T12:06:46;18.80;;;1.77;;
6117;SDS011;3089;48.202;11.510;2022-10-26T12:09:19;6.73;;;1.57;;
6117;SDS011;3089;48.202;11.510;2022-10-26T12:11:52;7.60;;;1.40;;
6117;SDS011;3089;48.202;11.510;2022-10-26T12:14:29;7.20;;;1.50;;
6117;SDS011;3089;48.202;11.510;2022-10-26T12:17:05;8.03;;;1.63;;
6117;SDS011;3089;48.202;11.510;2022-10-26T12:19:41;6.37;;;1.60;;
6117;SDS011;3089;48.202;11.510;2022-10-26T12:22:15;10.63;;;1.50;;
6117;SDS011;3089;48.202;11.510;2022-10-26T12:24:44;4.40;;;1.37;;
6117;SDS011;3089;48.202;11.510;2022-10-26T12:27:31;6.00;;;1.77;;
6117;SDS011;3089;48.202;11.510;2022-10-26T12:30:22;4.63;;;1.60;;
6117;SDS011;3089;48.202;11.510;2022-10-26T12:32:55;3.77;;;1.37;;
6117;SDS011;3089;48.202;11.510;2022-10-26T12:41:26;4.73;;;1.30;;
6117;SDS011;3089;48.202;11.510;2022-10-26T12:44:00;6.33;;;1.60;;
6117;SDS011;3089;48.202;11.510;2022-10-26T12:46:51;9.73;;;1.43;;
6117;SDS011;3089;48.202;11.510;2022-10-26T12:52:24;13.23;;;1.90;;
6117;SDS011;3089;48.202;11.510;2022-10-26T12:55:02;6.70;;;1.70;;
6117;SDS011;3089;48.202;11.510;2022-10-26T12:58:05;5.90;;;1.33;;
6117;SDS011;3089;48.202;11.510;2022-10-26T13:00:46;11.63;;;1.97;;
6117;SDS011;3089;48.202;11.510;2022-10-26T13:03:36;14.03;;;1.90;;
6117;SDS011;3089;48.202;11.510;2022-10-26T13:06:25;5.70;;;1.60;;
6117;SDS011;3089;48.202;11.510;2022-10-26T13:09:06;7.13;;;1.47;;
6117;SDS011;3089;48.202;11.510;2022-10-26T13:11:45;5.67;;;1.60;;
6117;SDS011;3089;48.202;11.510;2022-10-26T13:14:17;7.43;;;1.47;;
6117;SDS011;3089;48.202;11.510;2022-10-26T13:16:48;5.30;;;1.20;;
6117;SDS011;3089;48.202;11.510;2022-10-26T13:19:25;4.57;;;1.53;;
6117;SDS011;3089;48.202;11.510;2022-10-26T13:21:57;6.67;;;1.30;;
6117;SDS011;3089;48.202;11.510;2022-10-26T13:24:26;5.93;;;1.30;;
6117;SDS011;3089;48.202;11.510;2022-10-26T13:30:11;5.20;;;1.67;;
6117;SDS011;3089;48.202;11.510;2022-10-26T13:32:48;4.90;;;1.90;;
6117;SDS011;3089;48.202;11.510;2022-10-26T13:35:20;8.77;;;2.17;;
6117;SDS011;3089;48.202;11.510;2022-10-26T13:37:50;7.23;;;1.37;;
6117;SDS011;3089;48.202;11.510;2022-10-26T13:40:21;4.53;;;1.33;;
6117;SDS011;3089;48.202;11.510;2022-10-26T13:42:52;7.50;;;1.70;;
6117;SDS011;3089;48.202;11.510;2022-10-26T13:45:21;6.33;;;1.53;;
6117;SDS011;3089;48.202;11.510;2022-10-26T13:47:54;7.43;;;1.50;;
6117;SDS011;3089;48.202;11.510;2022-10-26T13:50:27;11.53;;;1.77;;
6117;SDS011;3089;48.202;11.510;2022-10-26T13:53:06;8.63;;;1.33;;
6117;SDS011;3089;48.202;11.510;2022-10-26T13:55:44;5.70;;;1.80;;
6117;SDS011;3089;48.202;11.510;2022-10-26T13:58:16;9.40;;;1.97;;
6117;SDS011;3089;48.202;11.510;2022-10-26T14:01:01;7.30;;;1.40;;
6117;SDS011;3089;48.202;11.510;2022-10-26T14:03:30;4.80;;;1.60;;
6117;SDS011;3089;48.202;11.510;2022-10-26T14:06:03;9.70;;;1.97;;
6117;SDS011;3089;48.202;11.510;2022-10-26T14:08:32;3.73;;;1.87;;
6117;SDS011;3089;48.202;11.510;2022-10-26T14:10:59;15.83;;;1.70;;
6117;SDS011;3089;48.202;11.510;2022-10-26T14:13:28;4.10;;;1.10;;
6117;SDS011;3089;48.202;11.510;2022-10-26T14:15:58;8.60;;;1.70;;
6117;SDS011;3089;48.202;11.510;2022-10-26T14:18:26;10.07;;;1.90;;
6117;SDS011;3089;48.202;11.510;2022-10-26T14:20:56;5.00;;;1.60;;
6117;SDS011;3089;48.202;11.510;2022-10-26T14:23:31;5.17;;;1.67;;
6117;SDS011;3089;48.202;11.510;2022-10-26T14:26:02;5.13;;;1.33;;
6117;SDS011;3089;48.202;11.510;2022-10-26T14:28:31;3.80;;;1.20;;
6117;SDS011;3089;48.202;11.510;2022-10-26T14:31:11;15.00;;;1.70;;
6117;SDS011;3089;48.202;11.510;2022-10-26T14:33:45;8.70;;;1.40;;
6117;SDS011;3089;48.202;11.510;2022-10-26T14:36:14;8.33;;;1.77;;
6117;SDS011;3089;48.202;11.510;2022-10-26T14:38:44;6.63;;;1.20;;
6117;SDS011;3089;48.202;11.510;2022-10-26T14:41:15;8.10;;;1.90;;
6117;SDS011;3089;48.202;11.510;2022-10-26T14:43:44;7.57;;;2.50;;
6117;SDS011;3089;48.202;11.510;2022-10-26T14:46:13;7.37;;;1.27;;
6117;SDS011;3089;48.202;11.510;2022-10-26T14:48:48;9.83;;;2.20;;
6117;SDS011;3089;48.202;11.510;2022-10-26T14:51:21;10.73;;;2.17;;
6117;SDS011;3089;48.202;11.510;2022-10-26T14:53:53;9.00;;;1.10;;
6117;SDS011;3089;48.202;11.510;2022-10-26T14:56:27;9.40;;;1.70;;
6117;SDS011;3089;48.202;11.510;2022-10-26T14:58:57;5.53;;;1.47;;
6117;SDS011;3089;48.202;11.510;2022-10-26T15:01:26;9.43;;;1.47;;
6117;SDS011;3089;48.202;11.510;2022-10-26T15:04:02;6.00;;;1.70;;
6117;SDS011;3089;48.202;11.510;2022-10-26T15:06:35;6.60;;;1.70;;
6117;SDS011;3089;48.202;11.510;2022-10-26T15:09:19;7.73;;;1.97;;
6117;SDS011;3089;48.202;11.510;2022-10-26T15:12:05;8.00;;;1.60;;
6117;SDS011;3089;48.202;11.510;2022-10-26T15:14:34;7.17;;;1.40;;
6117;SDS011;3089;48.202;11.510;2022-10-26T15:17:02;8.70;;;1.53;;
6117;SDS011;3089;48.202;11.510;2022-10-26T15:19:30;11.40;;;1.70;;
6117;SDS011;3089;48.202;11.510;2022-10-26T15:22:00;7.30;;;2.00;;
6117;SDS011;3089;48.202;11.510;2022-10-26T15:24:29;4.30;;;1.60;;
6117;SDS011;3089;48.202;11.510;2022-10-26T15:29:40;4.77;;;1.20;;
6117;SDS011;3089;48.202;11.510;2022-10-26T15:32:25;5.90;;;1.70;;
6117;SDS011;3089;48.202;11.510;2022-10-26T15:35:14;6.87;;;2.73;;
6117;SDS011;3089;48.202;11.510;2022-10-26T15:37:51;12.93;;;2.80;;
6117;SDS011;3089;48.202;11.510;2022-10-26T15:40:20;11.83;;;1.83;;
6117;SDS011;3089;48.202;11.510;2022-10-26T15:42:54;4.83;;;1.80;;
6117;SDS011;3089;48.202;11.510;2022-10-26T15:45:25;5.70;;;2.03;;
6117;SDS011;3089;48.202;11.510;2022-10-26T15:47:56;12.20;;;2.40;;
6117;SDS011;3089;48.202;11.510;2022-10-26T15:50:27;8.17;;;2.07;;
6117;SDS011;3089;48.202;11.510;2022-10-26T15:52:58;9.23;;;2.40;;
6117;SDS011;3089;48.202;11.510;2022-10-26T15:55:28;10.80;;;2.83;;